sensor_id;sensor_type;location;lat;lon;timestamp;pressure;altitude;pressure_sealevel;temperature;humidity
82305;BME280;71914;47.382;8.168;2024-03-23T00:55:41;96373.13;;;7.50;84.02
82305;BME280;71914;47.382;8.168;2024-03-23T00:58:07;96367.19;;;7.48;84.57
82305;BME280;71914;47.382;8.168;2024-03-23T01:00:33;96371.72;;;7.46;84.07
82305;BME280;71914;47.382;8.168;2024-03-23T01:02:58;96363.47;;;7.41;83.99
82305;BME280;71914;47.382;8.168;2024-03-23T01:05:24;96367.81;;;7.40;84.60
82305;BME280;71914;47.382;8.168;2024-03-23T01:07:49;96363.94;;;7.35;83.57
82305;BME280;71914;47.382;8.168;2024-03-23T01:10:15;96356.25;;;7.33;84.22
82305;BME280;71914;47.382;8.168;2024-03-23T01:12:40;96351.28;;;7.30;83.50
82305;BME280;71914;47.382;8.168;2024-03-23T01:15:06;96353.06;;;7.29;84.79
82305;BME280;71914;47.382;8.168;2024-03-23T01:17:32;96352.13;;;7.30;85.05
82305;BME280;71914;47.382;8.168;2024-03-23T01:19:58;96341.84;;;7.29;84.05
82305;BME280;71914;47.382;8.168;2024-03-23T01:22:23;96344.53;;;7.27;84.63
82305;BME280;71914;47.382;8.168;2024-03-23T01:24:49;96332.50;;;7.26;83.86
82305;BME280;71914;47.382;8.168;2024-03-23T01:27:14;96335.19;;;7.25;84.50
82305;BME280;71914;47.382;8.168;2024-03-23T01:29:39;96334.97;;;7.28;84.54
82305;BME280;71914;47.382;8.168;2024-03-23T01:32:05;96327.38;;;7.25;84.79
82305;BME280;71914;47.382;8.168;2024-03-23T01:34:31;96321.47;;;7.23;84.38
82305;BME280;71914;47.382;8.168;2024-03-23T01:36:56;96327.63;;;7.22;85.11
82305;BME280;71914;47.382;8.168;2024-03-23T01:39:22;96325.03;;;7.22;85.46
82305;BME280;71914;47.382;8.168;2024-03-23T01:41:47;96322.69;;;7.40;83.50
82305;BME280;71914;47.382;8.168;2024-03-23T01:44:12;96323.41;;;7.63;80.92
82305;BME280;71914;47.382;8.168;2024-03-23T01:46:38;96320.88;;;7.61;81.79
82305;BME280;71914;47.382;8.168;2024-03-23T01:49:07;96316.19;;;7.76;80.28
82305;BME280;71914;47.382;8.168;2024-03-23T01:51:33;96307.72;;;7.84;80.75
82305;BME280;71914;47.382;8.168;2024-03-23T01:54:00;96298.13;;;7.94;79.57
82305;BME280;71914;47.382;8.168;2024-03-23T01:56:32;96290.13;;;7.86;80.83
82305;BME280;71914;47.382;8.168;2024-03-23T01:59:00;96278.81;;;7.76;81.71
82305;BME280;71914;47.382;8.168;2024-03-23T02:01:25;96271.66;;;7.68;81.54
82305;BME280;71914;47.382;8.168;2024-03-23T02:03:51;96282.34;;;7.65;82.88
82305;BME280;71914;47.382;8.168;2024-03-23T02:06:16;96273.56;;;7.66;84.09
82305;BME280;71914;47.382;8.168;2024-03-23T02:08:43;96271.66;;;7.68;83.75
82305;BME280;71914;47.382;8.168;2024-03-23T02:11:08;96262.06;;;7.69;84.08
82305;BME280;71914;47.382;8.168;2024-03-23T02:13:34;96263.44;;;7.73;83.21
82305;BME280;71914;47.382;8.168;2024-03-23T02:15:59;96261.13;;;7.79;81.59
82305;BME280;71914;47.382;8.168;2024-03-23T02:18:25;96261.56;;;7.85;82.88
82305;BME280;71914;47.382;8.168;2024-03-23T02:20:50;96258.44;;;7.91;83.70
82305;BME280;71914;47.382;8.168;2024-03-23T02:23:16;96252.53;;;7.89;83.35
82305;BME280;71914;47.382;8.168;2024-03-23T02:25:43;96242.22;;;7.87;83.36
82305;BME280;71914;47.382;8.168;2024-03-23T02:28:08;96249.63;;;7.82;82.83
82305;BME280;71914;47.382;8.168;2024-03-23T02:30:34;96245.22;;;7.82;84.11
82305;BME280;71914;47.382;8.168;2024-03-23T02:32:59;96244.53;;;7.80;83.67
82305;BME280;71914;47.382;8.168;2024-03-23T02:35:25;96237.97;;;7.86;82.58
82305;BME280;71914;47.382;8.168;2024-03-23T02:37:50;96244.44;;;7.92;80.98
82305;BME280;71914;47.382;8.168;2024-03-23T02:40:16;96241.50;;;7.75;81.11
82305;BME280;71914;47.382;8.168;2024-03-23T02:42:42;96240.13;;;7.71;81.61
82305;BME280;71914;47.382;8.168;2024-03-23T02:45:07;96243.69;;;7.80;81.83
82305;BME280;71914;47.382;8.168;2024-03-23T02:47:33;96234.41;;;7.87;80.94
82305;BME280;71914;47.382;8.168;2024-03-23T02:49:59;96236.34;;;7.95;80.72
82305;BME280;71914;47.382;8.168;2024-03-23T02:52:24;96230.03;;;7.97;79.55
82305;BME280;71914;47.382;8.168;2024-03-23T02:54:49;96227.81;;;7.93;81.74
82305;BME280;71914;47.382;8.168;2024-03-23T02:57:15;96230.00;;;7.88;83.27
82305;BME280;71914;47.382;8.168;2024-03-23T02:59:40;96231.41;;;7.92;81.39
82305;BME280;71914;47.382;8.168;2024-03-23T03:02:06;96222.88;;;7.90;80.32
82305;BME280;71914;47.382;8.168;2024-03-23T03:04:32;96228.88;;;7.80;81.13
82305;BME280;71914;47.382;8.168;2024-03-23T03:06:58;96237.94;;;7.76;80.77
82305;BME280;71914;47.382;8.168;2024-03-23T03:09:23;96232.16;;;7.82;80.28
82305;BME280;71914;47.382;8.168;2024-03-23T03:11:49;96235.78;;;7.91;80.85
82305;BME280;71914;47.382;8.168;2024-03-23T03:14:14;96230.59;;;8.01;79.18
82305;BME280;71914;47.382;8.168;2024-03-23T03:16:39;96225.69;;;8.18;78.59
82305;BME280;71914;47.382;8.168;2024-03-23T03:19:05;96230.63;;;8.21;79.13
82305;BME280;71914;47.382;8.168;2024-03-23T03:21:31;96224.03;;;8.17;78.57
82305;BME280;71914;47.382;8.168;2024-03-23T03:23:57;96219.09;;;8.13;79.06
82305;BME280;71914;47.382;8.168;2024-03-23T03:26:23;96217.19;;;8.16;79.50
82305;BME280;71914;47.382;8.168;2024-03-23T03:28:49;96215.53;;;8.14;79.59
82305;BME280;71914;47.382;8.168;2024-03-23T03:31:15;96198.72;;;8.07;81.52
82305;BME280;71914;47.382;8.168;2024-03-23T03:33:41;96192.56;;;7.98;81.06
82305;BME280;71914;47.382;8.168;2024-03-23T03:36:07;96192.28;;;7.92;81.05
82305;BME280;71914;47.382;8.168;2024-03-23T03:38:32;96182.22;;;7.87;82.40
82305;BME280;71914;47.382;8.168;2024-03-23T03:41:00;96184.53;;;7.80;81.27
82305;BME280;71914;47.382;8.168;2024-03-23T03:43:26;96186.13;;;7.62;80.78
82305;BME280;71914;47.382;8.168;2024-03-23T03:45:52;96175.56;;;7.63;84.04
82305;BME280;71914;47.382;8.168;2024-03-23T03:48:18;96168.56;;;7.64;83.90
82305;BME280;71914;47.382;8.168;2024-03-23T03:50:43;96162.53;;;7.73;81.95
82305;BME280;71914;47.382;8.168;2024-03-23T03:53:08;96161.22;;;7.79;82.78
82305;BME280;71914;47.382;8.168;2024-03-23T03:55:34;96153.91;;;7.82;80.85
82305;BME280;71914;47.382;8.168;2024-03-23T03:57:59;96146.28;;;8.01;79.42
82305;BME280;71914;47.382;8.168;2024-03-23T04:00:25;96142.00;;;8.00;80.18
82305;BME280;71914;47.382;8.168;2024-03-23T04:02:50;96141.34;;;7.97;80.42
82305;BME280;71914;47.382;8.168;2024-03-23T04:05:16;96127.59;;;7.95;79.47
82305;BME280;71914;47.382;8.168;2024-03-23T04:07:42;96132.66;;;7.97;80.21
82305;BME280;71914;47.382;8.168;2024-03-23T04:10:07;96119.63;;;7.97;80.31
82305;BME280;71914;47.382;8.168;2024-03-23T04:12:34;96114.00;;;8.02;80.23
82305;BME280;71914;47.382;8.168;2024-03-23T04:14:59;96123.06;;;8.07;80.16
82305;BME280;71914;47.382;8.168;2024-03-23T04:17:25;96103.44;;;8.03;80.06
82305;BME280;71914;47.382;8.168;2024-03-23T04:19:51;96099.19;;;8.12;76.86
82305;BME280;71914;47.382;8.168;2024-03-23T04:22:17;96101.22;;;8.28;75.67
82305;BME280;71914;47.382;8.168;2024-03-23T04:24:43;96097.69;;;8.49;73.35
82305;BME280;71914;47.382;8.168;2024-03-23T04:27:08;96081.84;;;8.70;72.62
82305;BME280;71914;47.382;8.168;2024-03-23T04:29:33;96080.66;;;8.92;71.73
82305;BME280;71914;47.382;8.168;2024-03-23T04:31:59;96068.91;;;9.06;70.89
82305;BME280;71914;47.382;8.168;2024-03-23T04:34:24;96070.91;;;9.22;69.86
82305;BME280;71914;47.382;8.168;2024-03-23T04:36:50;96059.97;;;9.36;69.52
82305;BME280;71914;47.382;8.168;2024-03-23T04:39:15;96066.69;;;9.39;69.83
82305;BME280;71914;47.382;8.168;2024-03-23T04:41:41;96062.63;;;9.54;68.27
82305;BME280;71914;47.382;8.168;2024-03-23T04:44:06;96058.31;;;9.63;68.11
82305;BME280;71914;47.382;8.168;2024-03-23T04:46:31;96060.47;;;9.68;68.07
82305;BME280;71914;47.382;8.168;2024-03-23T04:48:57;96058.06;;;9.74;67.85
82305;BME280;71914;47.382;8.168;2024-03-23T04:51:23;96060.47;;;9.86;67.48
82305;BME280;71914;47.382;8.168;2024-03-23T04:53:48;96049.66;;;9.99;67.90
82305;BME280;71914;47.382;8.168;2024-03-23T04:56:17;96054.13;;;10.06;68.01
82305;BME280;71914;47.382;8.168;2024-03-23T04:58:43;96058.78;;;10.12;67.82
82305;BME280;71914;47.382;8.168;2024-03-23T05:01:09;96075.28;;;10.13;67.83
82305;BME280;71914;47.382;8.168;2024-03-23T05:03:35;96091.00;;;10.13;69.27
82305;BME280;71914;47.382;8.168;2024-03-23T05:06:00;96106.03;;;10.11;67.94
82305;BME280;71914;47.382;8.168;2024-03-23T05:08:26;96124.13;;;10.22;69.17
82305;BME280;71914;47.382;8.168;2024-03-23T05:10:51;96125.09;;;9.85;71.09
82305;BME280;71914;47.382;8.168;2024-03-23T05:13:16;96129.16;;;9.70;73.32
82305;BME280;71914;47.382;8.168;2024-03-23T05:15:42;96126.38;;;9.81;72.23
82305;BME280;71914;47.382;8.168;2024-03-23T05:18:08;96141.22;;;9.80;72.80
82305;BME280;71914;47.382;8.168;2024-03-23T05:20:33;96110.34;;;9.84;72.56
82305;BME280;71914;47.382;8.168;2024-03-23T05:22:59;96116.88;;;9.98;72.19
82305;BME280;71914;47.382;8.168;2024-03-23T05:25:24;96096.06;;;9.96;72.69
82305;BME280;71914;47.382;8.168;2024-03-23T05:27:49;96110.97;;;9.96;72.89
82305;BME280;71914;47.382;8.168;2024-03-23T05:30:15;96109.69;;;10.00;74.37
82305;BME280;71914;47.382;8.168;2024-03-23T05:32:40;96113.06;;;10.10;73.79
82305;BME280;71914;47.382;8.168;2024-03-23T05:35:07;96114.63;;;10.03;74.40
82305;BME280;71914;47.382;8.168;2024-03-23T05:37:33;96146.19;;;10.02;75.43
82305;BME280;71914;47.382;8.168;2024-03-23T05:40:00;96154.00;;;10.11;75.90
82305;BME280;71914;47.382;8.168;2024-03-23T05:42:25;96143.22;;;10.14;78.00
82305;BME280;71914;47.382;8.168;2024-03-23T05:44:50;96150.28;;;9.86;80.33
82305;BME280;71914;47.382;8.168;2024-03-23T05:47:16;96143.50;;;9.66;82.00
82305;BME280;71914;47.382;8.168;2024-03-23T05:49:42;96141.88;;;9.64;80.79
82305;BME280;71914;47.382;8.168;2024-03-23T05:52:09;96150.81;;;9.62;82.78
82305;BME280;71914;47.382;8.168;2024-03-23T05:54:35;96152.19;;;9.66;81.59
82305;BME280;71914;47.382;8.168;2024-03-23T05:57:00;96155.75;;;9.65;81.60
82305;BME280;71914;47.382;8.168;2024-03-23T05:59:26;96157.72;;;9.63;82.11
82305;BME280;71914;47.382;8.168;2024-03-23T06:01:52;96169.22;;;9.70;82.79
82305;BME280;71914;47.382;8.168;2024-03-23T06:04:17;96172.69;;;9.71;82.49
82305;BME280;71914;47.382;8.168;2024-03-23T06:06:43;96188.31;;;9.80;83.94
82305;BME280;71914;47.382;8.168;2024-03-23T06:09:08;96195.69;;;9.67;83.88
82305;BME280;71914;47.382;8.168;2024-03-23T06:11:34;96181.03;;;9.46;84.95
82305;BME280;71914;47.382;8.168;2024-03-23T06:13:59;96193.31;;;9.36;85.38
82305;BME280;71914;47.382;8.168;2024-03-23T06:16:24;96198.16;;;9.31;85.96
82305;BME280;71914;47.382;8.168;2024-03-23T06:18:50;96219.59;;;9.35;87.23
82305;BME280;71914;47.382;8.168;2024-03-23T06:21:16;96221.81;;;9.39;87.97
82305;BME280;71914;47.382;8.168;2024-03-23T06:23:42;96223.47;;;9.40;86.05
82305;BME280;71914;47.382;8.168;2024-03-23T06:26:07;96205.16;;;9.40;83.98
82305;BME280;71914;47.382;8.168;2024-03-23T06:28:33;96207.22;;;9.37;84.37
82305;BME280;71914;47.382;8.168;2024-03-23T06:30:59;96215.34;;;9.34;83.33
82305;BME280;71914;47.382;8.168;2024-03-23T06:33:25;96219.06;;;9.31;83.30
82305;BME280;71914;47.382;8.168;2024-03-23T06:35:53;96236.94;;;9.36;82.60
82305;BME280;71914;47.382;8.168;2024-03-23T06:38:18;96245.59;;;9.36;82.84
82305;BME280;71914;47.382;8.168;2024-03-23T06:40:44;96243.28;;;9.33;82.21
82305;BME280;71914;47.382;8.168;2024-03-23T06:43:13;96252.78;;;9.34;80.74
82305;BME280;71914;47.382;8.168;2024-03-23T06:45:39;96250.44;;;9.41;78.90
82305;BME280;71914;47.382;8.168;2024-03-23T06:48:05;96232.28;;;9.39;76.83
82305;BME280;71914;47.382;8.168;2024-03-23T06:50:33;96257.31;;;9.42;76.41
82305;BME280;71914;47.382;8.168;2024-03-23T06:52:59;96271.34;;;9.41;76.05
82305;BME280;71914;47.382;8.168;2024-03-23T06:55:24;96290.63;;;9.40;75.49
82305;BME280;71914;47.382;8.168;2024-03-23T06:57:52;96286.94;;;9.33;75.50
82305;BME280;71914;47.382;8.168;2024-03-23T07:00:17;96300.25;;;9.29;75.45
82305;BME280;71914;47.382;8.168;2024-03-23T07:02:43;96302.06;;;9.29;75.82
82305;BME280;71914;47.382;8.168;2024-03-23T07:05:10;96312.91;;;9.24;77.07
82305;BME280;71914;47.382;8.168;2024-03-23T07:07:36;96300.69;;;9.25;75.71
82305;BME280;71914;47.382;8.168;2024-03-23T07:10:01;96308.53;;;9.25;75.24
82305;BME280;71914;47.382;8.168;2024-03-23T07:12:27;96298.63;;;9.28;76.09
82305;BME280;71914;47.382;8.168;2024-03-23T07:14:53;96306.31;;;9.30;76.73
82305;BME280;71914;47.382;8.168;2024-03-23T07:17:18;96315.28;;;9.27;77.09
82305;BME280;71914;47.382;8.168;2024-03-23T07:19:43;96309.47;;;9.34;75.56
82305;BME280;71914;47.382;8.168;2024-03-23T07:22:09;96321.59;;;9.35;76.76
82305;BME280;71914;47.382;8.168;2024-03-23T07:24:35;96328.63;;;9.34;77.31
82305;BME280;71914;47.382;8.168;2024-03-23T07:27:01;96340.72;;;9.35;77.69
82305;BME280;71914;47.382;8.168;2024-03-23T07:29:28;96366.31;;;9.32;76.62
82305;BME280;71914;47.382;8.168;2024-03-23T07:31:54;96347.44;;;8.89;77.96
82305;BME280;71914;47.382;8.168;2024-03-23T07:34:19;96381.91;;;8.32;77.14
82305;BME280;71914;47.382;8.168;2024-03-23T07:36:45;96391.88;;;7.86;79.13
82305;BME280;71914;47.382;8.168;2024-03-23T07:39:10;96404.47;;;7.60;79.05
82305;BME280;71914;47.382;8.168;2024-03-23T07:41:36;96401.59;;;7.42;77.78
82305;BME280;71914;47.382;8.168;2024-03-23T07:44:02;96422.38;;;7.32;78.15
82305;BME280;71914;47.382;8.168;2024-03-23T07:46:27;96440.41;;;7.24;77.34
82305;BME280;71914;47.382;8.168;2024-03-23T07:48:53;96437.47;;;7.17;75.79
82305;BME280;71914;47.382;8.168;2024-03-23T07:51:21;96424.09;;;7.10;75.98
82305;BME280;71914;47.382;8.168;2024-03-23T07:53:47;96441.91;;;7.05;76.26
82305;BME280;71914;47.382;8.168;2024-03-23T07:56:16;96451.25;;;6.96;76.31
82305;BME280;71914;47.382;8.168;2024-03-23T07:58:43;96453.66;;;6.88;75.73
82305;BME280;71914;47.382;8.168;2024-03-23T08:01:08;96468.91;;;6.81;75.12
82305;BME280;71914;47.382;8.168;2024-03-23T08:03:38;96501.13;;;6.80;75.28
82305;BME280;71914;47.382;8.168;2024-03-23T08:06:12;96501.34;;;6.77;74.82
82305;BME280;71914;47.382;8.168;2024-03-23T08:08:38;96500.41;;;6.78;74.61
82305;BME280;71914;47.382;8.168;2024-03-23T08:11:04;96533.19;;;6.70;72.85
82305;BME280;71914;47.382;8.168;2024-03-23T08:13:30;96525.88;;;6.63;73.76
82305;BME280;71914;47.382;8.168;2024-03-23T08:15:59;96511.44;;;6.59;72.83
82305;BME280;71914;47.382;8.168;2024-03-23T08:18:25;96529.19;;;6.54;73.25
82305;BME280;71914;47.382;8.168;2024-03-23T08:23:23;96524.19;;;6.51;71.51
82305;BME280;71914;47.382;8.168;2024-03-23T08:25:49;96552.72;;;6.53;71.77
82305;BME280;71914;47.382;8.168;2024-03-23T08:28:14;96562.66;;;6.47;72.50
82305;BME280;71914;47.382;8.168;2024-03-23T08:30:40;96580.41;;;6.42;72.37
82305;BME280;71914;47.382;8.168;2024-03-23T08:33:05;96564.97;;;6.39;70.96
82305;BME280;71914;47.382;8.168;2024-03-23T08:35:30;96562.88;;;6.33;70.54
82305;BME280;71914;47.382;8.168;2024-03-23T08:37:56;96577.63;;;6.32;69.81
82305;BME280;71914;47.382;8.168;2024-03-23T08:40:21;96574.59;;;6.39;70.89
82305;BME280;71914;47.382;8.168;2024-03-23T08:42:47;96576.81;;;6.43;70.45
82305;BME280;71914;47.382;8.168;2024-03-23T08:45:12;96576.97;;;6.53;71.52
82305;BME280;71914;47.382;8.168;2024-03-23T08:47:38;96573.09;;;6.70;70.81
82305;BME280;71914;47.382;8.168;2024-03-23T08:50:03;96589.81;;;6.79;70.77
82305;BME280;71914;47.382;8.168;2024-03-23T08:52:29;96592.97;;;6.82;69.88
82305;BME280;71914;47.382;8.168;2024-03-23T08:54:55;96592.53;;;7.00;69.79
82305;BME280;71914;47.382;8.168;2024-03-23T08:57:22;96577.00;;;6.98;68.35
82305;BME280;71914;47.382;8.168;2024-03-23T08:59:48;96592.50;;;7.11;67.79
82305;BME280;71914;47.382;8.168;2024-03-23T09:02:13;96598.44;;;7.13;68.43
82305;BME280;71914;47.382;8.168;2024-03-23T09:04:38;96596.31;;;7.19;67.69
82305;BME280;71914;47.382;8.168;2024-03-23T09:07:04;96611.84;;;7.31;67.68
82305;BME280;71914;47.382;8.168;2024-03-23T09:09:29;96618.81;;;7.31;67.19
82305;BME280;71914;47.382;8.168;2024-03-23T09:11:55;96604.84;;;7.32;66.84
82305;BME280;71914;47.382;8.168;2024-03-23T09:14:22;96602.44;;;7.40;65.64
82305;BME280;71914;47.382;8.168;2024-03-23T09:16:50;96609.78;;;7.46;65.80
82305;BME280;71914;47.382;8.168;2024-03-23T09:19:17;96621.75;;;7.49;64.18
82305;BME280;71914;47.382;8.168;2024-03-23T09:21:42;96626.63;;;7.42;63.95
82305;BME280;71914;47.382;8.168;2024-03-23T09:24:08;96626.16;;;7.37;63.94
82305;BME280;71914;47.382;8.168;2024-03-23T09:26:33;96638.22;;;7.61;64.99
82305;BME280;71914;47.382;8.168;2024-03-23T09:28:59;96635.22;;;7.77;63.65
82305;BME280;71914;47.382;8.168;2024-03-23T09:31:24;96649.53;;;7.82;61.98
82305;BME280;71914;47.382;8.168;2024-03-23T09:33:50;96641.84;;;7.81;61.32
82305;BME280;71914;47.382;8.168;2024-03-23T09:36:15;96632.34;;;7.91;63.04
82305;BME280;71914;47.382;8.168;2024-03-23T09:38:41;96639.97;;;7.83;63.82
82305;BME280;71914;47.382;8.168;2024-03-23T09:41:09;96635.06;;;8.01;63.72
82305;BME280;71914;47.382;8.168;2024-03-23T09:43:35;96638.41;;;8.24;63.18
82305;BME280;71914;47.382;8.168;2024-03-23T09:46:03;96632.50;;;8.43;64.11
82305;BME280;71914;47.382;8.168;2024-03-23T09:48:29;96609.00;;;8.43;62.30
82305;BME280;71914;47.382;8.168;2024-03-23T09:50:54;96614.59;;;8.39;62.68
82305;BME280;71914;47.382;8.168;2024-03-23T09:53:20;96624.41;;;8.25;60.57
82305;BME280;71914;47.382;8.168;2024-03-23T09:55:47;96598.06;;;7.96;62.31
82305;BME280;71914;47.382;8.168;2024-03-23T09:58:15;96610.97;;;7.97;61.99
82305;BME280;71914;47.382;8.168;2024-03-23T10:00:41;96603.44;;;8.16;59.95
82305;BME280;71914;47.382;8.168;2024-03-23T10:03:06;96611.91;;;8.08;61.08
82305;BME280;71914;47.382;8.168;2024-03-23T10:05:34;96618.41;;;8.02;59.94
82305;BME280;71914;47.382;8.168;2024-03-23T10:08:00;96604.44;;;8.03;60.12
82305;BME280;71914;47.382;8.168;2024-03-23T10:10:42;96613.63;;;8.19;58.35
82305;BME280;71914;47.382;8.168;2024-03-23T10:13:08;96621.97;;;8.34;60.10
82305;BME280;71914;47.382;8.168;2024-03-23T10:15:35;96609.25;;;8.40;58.98
82305;BME280;71914;47.382;8.168;2024-03-23T10:18:19;96620.06;;;8.47;58.52
82305;BME280;71914;47.382;8.168;2024-03-23T10:20:51;96611.16;;;8.38;57.15
82305;BME280;71914;47.382;8.168;2024-03-23T10:23:17;96620.16;;;8.45;55.40
82305;BME280;71914;47.382;8.168;2024-03-23T10:25:43;96608.56;;;8.38;53.71
82305;BME280;71914;47.382;8.168;2024-03-23T10:28:08;96595.09;;;8.22;52.70
82305;BME280;71914;47.382;8.168;2024-03-23T10:30:34;96612.16;;;8.26;54.72
82305;BME280;71914;47.382;8.168;2024-03-23T10:33:08;96602.38;;;8.39;54.18
82305;BME280;71914;47.382;8.168;2024-03-23T10:35:34;96616.84;;;8.43;53.27
82305;BME280;71914;47.382;8.168;2024-03-23T10:38:01;96620.50;;;8.52;53.33
82305;BME280;71914;47.382;8.168;2024-03-23T10:40:29;96626.56;;;8.53;52.57
82305;BME280;71914;47.382;8.168;2024-03-23T10:42:57;96620.63;;;8.51;52.94
82305;BME280;71914;47.382;8.168;2024-03-23T10:45:23;96634.50;;;8.19;52.41
82305;BME280;71914;47.382;8.168;2024-03-23T10:47:49;96622.03;;;8.22;52.89
82305;BME280;71914;47.382;8.168;2024-03-23T10:50:14;96621.47;;;8.19;53.26
82305;BME280;71914;47.382;8.168;2024-03-23T10:52:44;96641.59;;;8.28;53.34
82305;BME280;71914;47.382;8.168;2024-03-23T10:55:10;96627.06;;;8.35;53.75
82305;BME280;71914;47.382;8.168;2024-03-23T10:57:49;96632.88;;;8.50;53.11
82305;BME280;71914;47.382;8.168;2024-03-23T11:00:17;96628.38;;;8.41;53.37
82305;BME280;71914;47.382;8.168;2024-03-23T11:02:42;96643.56;;;8.36;53.87
82305;BME280;71914;47.382;8.168;2024-03-23T11:07:52;96603.19;;;8.19;51.90
82305;BME280;71914;47.382;8.168;2024-03-23T11:10:29;96641.47;;;8.29;51.46
82305;BME280;71914;47.382;8.168;2024-03-23T11:13:21;96612.25;;;8.36;51.17
82305;BME280;71914;47.382;8.168;2024-03-23T11:15:44;96612.09;;;8.70;50.96
82305;BME280;71914;47.382;8.168;2024-03-23T11:18:09;96610.84;;;8.95;46.75
82305;BME280;71914;47.382;8.168;2024-03-23T11:20:35;96618.22;;;9.11;45.23
82305;BME280;71914;47.382;8.168;2024-03-23T11:23:01;96616.59;;;9.20;48.07
82305;BME280;71914;47.382;8.168;2024-03-23T11:25:28;96629.34;;;9.44;47.29
82305;BME280;71914;47.382;8.168;2024-03-23T11:27:58;96632.81;;;9.44;46.36
82305;BME280;71914;47.382;8.168;2024-03-23T11:30:34;96628.09;;;9.38;48.49
82305;BME280;71914;47.382;8.168;2024-03-23T11:33:02;96642.63;;;9.52;46.53
82305;BME280;71914;47.382;8.168;2024-03-23T11:38:08;96633.50;;;9.46;44.87
82305;BME280;71914;47.382;8.168;2024-03-23T11:40:35;96641.69;;;9.32;47.59
82305;BME280;71914;47.382;8.168;2024-03-23T11:43:04;96634.50;;;9.24;47.07
82305;BME280;71914;47.382;8.168;2024-03-23T11:45:35;96660.41;;;9.27;47.38
82305;BME280;71914;47.382;8.168;2024-03-23T11:48:08;96632.44;;;9.18;47.75
82305;BME280;71914;47.382;8.168;2024-03-23T11:50:36;96625.53;;;9.17;47.72
82305;BME280;71914;47.382;8.168;2024-03-23T11:53:18;96625.72;;;9.25;47.97
82305;BME280;71914;47.382;8.168;2024-03-23T11:55:50;96634.47;;;9.14;48.41
82305;BME280;71914;47.382;8.168;2024-03-23T11:58:18;96621.78;;;9.10;49.53
82305;BME280;71914;47.382;8.168;2024-03-23T12:00:50;96625.81;;;9.14;51.61
82305;BME280;71914;47.382;8.168;2024-03-23T12:03:17;96635.16;;;8.86;54.91
82305;BME280;71914;47.382;8.168;2024-03-23T12:05:50;96645.78;;;8.40;57.87
82305;BME280;71914;47.382;8.168;2024-03-23T12:08:28;96650.91;;;8.09;59.60
82305;BME280;71914;47.382;8.168;2024-03-23T12:11:17;96653.34;;;7.78;60.66
82305;BME280;71914;47.382;8.168;2024-03-23T12:13:45;96650.91;;;7.54;60.44
82305;BME280;71914;47.382;8.168;2024-03-23T12:16:16;96651.75;;;7.32;61.22
82305;BME280;71914;47.382;8.168;2024-03-23T12:18:44;96659.31;;;7.35;61.19
82305;BME280;71914;47.382;8.168;2024-03-23T12:21:10;96654.13;;;7.46;60.94
82305;BME280;71914;47.382;8.168;2024-03-23T12:23:36;96650.06;;;7.54;61.32
82305;BME280;71914;47.382;8.168;2024-03-23T12:26:03;96645.81;;;7.53;60.88
82305;BME280;71914;47.382;8.168;2024-03-23T12:28:29;96641.31;;;7.55;59.87
82305;BME280;71914;47.382;8.168;2024-03-23T12:30:55;96629.22;;;7.54;59.79
82305;BME280;71914;47.382;8.168;2024-03-23T12:33:21;96637.28;;;7.62;59.70
82305;BME280;71914;47.382;8.168;2024-03-23T12:35:47;96613.53;;;7.76;59.03
82305;BME280;71914;47.382;8.168;2024-03-23T12:38:12;96610.81;;;8.10;59.12
82305;BME280;71914;47.382;8.168;2024-03-23T12:40:38;96600.47;;;8.41;57.30
82305;BME280;71914;47.382;8.168;2024-03-23T12:43:03;96613.66;;;8.40;54.91
82305;BME280;71914;47.382;8.168;2024-03-23T12:45:28;96587.84;;;8.25;56.03
82305;BME280;71914;47.382;8.168;2024-03-23T12:47:54;96582.63;;;8.25;57.32
82305;BME280;71914;47.382;8.168;2024-03-23T12:50:20;96582.94;;;8.32;56.47
82305;BME280;71914;47.382;8.168;2024-03-23T12:52:46;96582.66;;;8.46;56.77
82305;BME280;71914;47.382;8.168;2024-03-23T12:55:12;96573.88;;;8.69;56.65
82305;BME280;71914;47.382;8.168;2024-03-23T12:57:37;96570.69;;;8.96;53.10
82305;BME280;71914;47.382;8.168;2024-03-23T13:00:03;96574.94;;;9.28;51.20
82305;BME280;71914;47.382;8.168;2024-03-23T13:02:29;96557.69;;;9.66;48.98
82305;BME280;71914;47.382;8.168;2024-03-23T13:04:55;96565.25;;;9.89;45.09
82305;BME280;71914;47.382;8.168;2024-03-23T13:07:22;96552.50;;;9.95;44.26
82305;BME280;71914;47.382;8.168;2024-03-23T13:09:51;96539.66;;;9.83;45.50
82305;BME280;71914;47.382;8.168;2024-03-23T13:12:17;96542.81;;;9.76;46.75
82305;BME280;71914;47.382;8.168;2024-03-23T13:14:44;96538.97;;;9.90;44.41
82305;BME280;71914;47.382;8.168;2024-03-23T13:17:09;96549.72;;;10.07;45.25
82305;BME280;71914;47.382;8.168;2024-03-23T13:19:35;96537.19;;;10.10;43.67
82305;BME280;71914;47.382;8.168;2024-03-23T13:22:01;96537.31;;;9.99;43.33
82305;BME280;71914;47.382;8.168;2024-03-23T13:24:27;96533.44;;;10.13;43.59
82305;BME280;71914;47.382;8.168;2024-03-23T13:26:54;96519.00;;;10.09;44.30
82305;BME280;71914;47.382;8.168;2024-03-23T13:29:20;96533.75;;;9.90;44.83
82305;BME280;71914;47.382;8.168;2024-03-23T13:31:46;96520.38;;;9.74;44.15
82305;BME280;71914;47.382;8.168;2024-03-23T13:34:13;96535.50;;;9.60;43.27
82305;BME280;71914;47.382;8.168;2024-03-23T13:36:42;96531.25;;;9.89;45.03
82305;BME280;71914;47.382;8.168;2024-03-23T13:39:07;96525.47;;;9.75;46.78
82305;BME280;71914;47.382;8.168;2024-03-23T13:41:43;96530.91;;;9.33;48.15
82305;BME280;71914;47.382;8.168;2024-03-23T13:44:10;96537.91;;;9.23;46.87
82305;BME280;71914;47.382;8.168;2024-03-23T13:46:37;96531.47;;;9.37;48.73
82305;BME280;71914;47.382;8.168;2024-03-23T13:49:03;96528.81;;;9.27;48.45
82305;BME280;71914;47.382;8.168;2024-03-23T13:51:28;96521.25;;;9.24;49.94
82305;BME280;71914;47.382;8.168;2024-03-23T13:53:54;96527.50;;;9.33;47.97
82305;BME280;71914;47.382;8.168;2024-03-23T13:56:24;96526.78;;;9.30;47.42
82305;BME280;71914;47.382;8.168;2024-03-23T13:58:49;96519.94;;;9.49;48.04
82305;BME280;71914;47.382;8.168;2024-03-23T14:01:16;96511.97;;;9.70;46.07
82305;BME280;71914;47.382;8.168;2024-03-23T14:03:42;96513.50;;;9.83;43.72
82305;BME280;71914;47.382;8.168;2024-03-23T14:06:08;96522.59;;;9.98;44.44
82305;BME280;71914;47.382;8.168;2024-03-23T14:08:38;96515.53;;;10.08;43.46